createdAt,value
2023-03-03T00:01:04.531Z,7.03
2023-03-03T00:03:34.285Z,7.45
2023-03-03T00:06:03.982Z,7.53
2023-03-03T00:08:32.456Z,6.30
2023-03-03T00:11:00.905Z,8.32
2023-03-03T00:13:29.977Z,7.37
2023-03-03T00:16:13.822Z,7.47
2023-03-03T00:18:45.303Z,6.93
2023-03-03T00:21:30.749Z,7.95
2023-03-03T00:24:16.254Z,7.90
2023-03-03T00:26:47.279Z,7.93
2023-03-03T00:29:31.927Z,7.28
2023-03-03T00:32:17.134Z,7.00
2023-03-03T00:34:46.664Z,7.20
2023-03-03T00:37:29.242Z,7.80
2023-03-03T00:40:14.826Z,9.53
2023-03-03T00:42:44.255Z,7.90
2023-03-03T00:45:32.038Z,7.90
2023-03-03T00:48:09.274Z,8.18
2023-03-03T00:50:43.353Z,8.52
2023-03-03T00:53:14.804Z,8.33
2023-03-03T00:55:42.585Z,7.05
2023-03-03T00:58:10.895Z,7.70
2023-03-03T01:00:43.497Z,7.78
2023-03-03T01:03:15.395Z,7.90
2023-03-03T01:05:44.820Z,8.17
2023-03-03T01:08:13.317Z,7.63
2023-03-03T01:10:47.044Z,8.40
2023-03-03T01:13:15.032Z,8.52
2023-03-03T01:15:43.014Z,7.93
2023-03-03T01:18:11.331Z,8.37
2023-03-03T01:20:39.490Z,8.10
2023-03-03T01:23:09.493Z,8.05
2023-03-03T01:25:37.748Z,7.75
2023-03-03T01:28:06.781Z,8.57
2023-03-03T01:30:34.734Z,7.67
2023-03-03T01:33:02.778Z,7.93
2023-03-03T01:35:30.942Z,8.02
2023-03-03T01:38:00.200Z,7.25
2023-03-03T01:40:32.177Z,8.13
2023-03-03T01:43:00.510Z,9.23
2023-03-03T01:45:30.186Z,8.15
2023-03-03T01:48:02.492Z,7.88
2023-03-03T01:50:41.196Z,8.13
2023-03-03T01:53:14.981Z,7.75
2023-03-03T01:55:46.085Z,7.80
2023-03-03T01:58:18.453Z,7.15
2023-03-03T02:00:51.446Z,8.50
2023-03-03T02:03:21.798Z,7.07
2023-03-03T02:05:51.620Z,9.02
2023-03-03T02:08:25.147Z,8.30
2023-03-03T02:10:55.776Z,8.38
2023-03-03T02:13:25.894Z,7.43
2023-03-03T02:15:56.723Z,8.20
2023-03-03T02:18:25.004Z,8.40
2023-03-03T02:20:59.392Z,7.57
2023-03-03T02:23:35.544Z,8.15
2023-03-03T02:26:08.041Z,8.45
2023-03-03T02:28:38.650Z,7.55
2023-03-03T02:31:13.326Z,8.50
2023-03-03T02:33:42.901Z,8.27
2023-03-03T02:36:13.502Z,9.30
2023-03-03T02:38:47.491Z,8.32
2023-03-03T02:41:28.042Z,8.23
2023-03-03T02:44:00.627Z,7.80
2023-03-03T02:46:29.194Z,8.60
2023-03-03T02:48:56.982Z,9.02
2023-03-03T02:51:24.872Z,9.25
2023-03-03T02:53:52.779Z,7.57
2023-03-03T02:56:22.211Z,8.65
2023-03-03T02:58:50.142Z,8.10
2023-03-03T03:01:19.029Z,8.88
2023-03-03T03:03:47.422Z,10.65
2023-03-03T03:06:19.270Z,9.50
2023-03-03T03:08:47.692Z,9.52
2023-03-03T03:11:15.545Z,10.40
2023-03-03T03:13:45.091Z,11.15
2023-03-03T03:16:13.389Z,10.90
2023-03-03T03:18:41.225Z,11.02
2023-03-03T03:21:11.040Z,10.45
2023-03-03T03:23:40.102Z,10.77
2023-03-03T03:26:08.958Z,10.70
2023-03-03T03:28:37.375Z,10.95
2023-03-03T03:31:09.599Z,11.43
2023-03-03T03:33:37.710Z,10.70
2023-03-03T03:36:06.985Z,10.87
2023-03-03T03:38:37.300Z,12.27
2023-03-03T03:41:08.001Z,13.50
2023-03-03T03:43:36.596Z,12.55
2023-03-03T03:46:04.824Z,14.85
2023-03-03T03:48:34.014Z,14.17
2023-03-03T03:51:03.798Z,14.80
2023-03-03T03:53:32.915Z,14.77
2023-03-03T03:56:00.732Z,12.70
2023-03-03T03:58:28.875Z,14.60
2023-03-03T04:01:04.473Z,12.30
2023-03-03T04:03:34.348Z,12.05
2023-03-03T04:06:04.974Z,13.25
2023-03-03T04:08:32.832Z,12.02
2023-03-03T04:11:00.691Z,12.85
2023-03-03T04:13:31.880Z,10.63
2023-03-03T04:16:00.848Z,11.75
2023-03-03T04:18:28.762Z,12.48
2023-03-03T04:20:58.939Z,12.13
2023-03-03T04:23:27.955Z,10.45
2023-03-03T04:25:56.036Z,11.57
2023-03-03T04:28:25.210Z,10.27
2023-03-03T04:30:53.690Z,10.85
2023-03-03T04:33:22.863Z,9.75
2023-03-03T04:35:51.281Z,11.25
2023-03-03T04:38:20.673Z,11.80
2023-03-03T04:40:49.581Z,10.32
2023-03-03T04:43:18.815Z,10.38
2023-03-03T04:45:46.750Z,12.50
2023-03-03T04:48:15.021Z,11.55
2023-03-03T04:50:43.642Z,9.37
2023-03-03T04:53:11.517Z,9.85
2023-03-03T04:55:42.660Z,9.65
2023-03-03T04:58:10.980Z,11.20
2023-03-03T05:00:39.946Z,10.90
2023-03-03T05:03:09.708Z,12.87
2023-03-03T05:05:37.616Z,10.55
2023-03-03T05:08:05.760Z,10.25
2023-03-03T05:10:35.129Z,9.80
2023-03-03T05:13:04.822Z,10.95
2023-03-03T05:15:32.734Z,10.70
2023-03-03T05:18:00.710Z,9.55
2023-03-03T05:20:28.752Z,10.35
2023-03-03T05:22:59.607Z,9.38
2023-03-03T05:25:27.410Z,9.32
2023-03-03T05:27:55.448Z,10.00
2023-03-03T05:30:24.707Z,10.43
2023-03-03T05:32:52.672Z,9.52
2023-03-03T05:35:20.944Z,9.20
2023-03-03T05:37:49.732Z,10.32
2023-03-03T05:40:17.901Z,9.07
2023-03-03T05:42:45.898Z,9.80
2023-03-03T05:45:14.178Z,9.32
2023-03-03T05:47:43.359Z,10.23
2023-03-03T05:50:12.191Z,10.48
2023-03-03T05:52:40.028Z,12.53
2023-03-03T05:55:08.656Z,10.35
2023-03-03T05:57:36.853Z,11.73
2023-03-03T06:00:06.423Z,11.40
2023-03-03T06:02:40.133Z,10.40
2023-03-03T06:05:10.588Z,12.57
2023-03-03T06:07:38.579Z,11.30
2023-03-03T06:10:07.654Z,9.65
2023-03-03T06:12:39.044Z,9.43
2023-03-03T06:15:08.499Z,10.57
2023-03-03T06:17:36.405Z,9.93
2023-03-03T06:20:05.180Z,9.85
2023-03-03T06:22:34.450Z,10.73
2023-03-03T06:25:02.470Z,12.10
2023-03-03T06:27:30.356Z,11.75
2023-03-03T06:29:58.289Z,9.90
2023-03-03T06:32:26.192Z,11.68
2023-03-03T06:34:54.017Z,9.60
2023-03-03T06:37:21.934Z,8.48
2023-03-03T06:39:52.563Z,8.27
2023-03-03T06:42:21.054Z,8.47
2023-03-03T06:44:48.973Z,8.80
2023-03-03T06:47:17.112Z,9.48
2023-03-03T06:49:44.968Z,8.93
2023-03-03T06:52:14.735Z,8.90
2023-03-03T06:54:42.715Z,9.50
2023-03-03T06:57:18.761Z,9.50
2023-03-03T06:59:49.992Z,8.77
2023-03-03T07:02:19.197Z,8.85
2023-03-03T07:04:47.908Z,9.13
2023-03-03T07:07:20.550Z,9.43
2023-03-03T07:09:50.617Z,9.05
2023-03-03T07:12:23.249Z,9.93
2023-03-03T07:14:56.201Z,9.18
2023-03-03T07:17:26.628Z,8.90
2023-03-03T07:19:54.968Z,9.00
2023-03-03T07:22:25.401Z,9.82
2023-03-03T07:24:56.182Z,8.38
2023-03-03T07:27:27.427Z,10.75
2023-03-03T07:29:59.500Z,9.02
2023-03-03T07:32:32.496Z,9.53
2023-03-03T07:35:00.401Z,8.63
2023-03-03T07:37:36.213Z,8.65
2023-03-03T07:40:26.091Z,8.35
2023-03-03T07:42:55.241Z,9.88
2023-03-03T07:45:33.432Z,8.80
2023-03-03T07:48:10.719Z,10.43
2023-03-03T07:50:38.523Z,9.10
2023-03-03T07:53:15.848Z,8.82
2023-03-03T07:55:45.776Z,9.55
2023-03-03T07:58:23.407Z,8.00
2023-03-03T08:01:29.652Z,9.05
2023-03-03T08:03:58.038Z,9.65
2023-03-03T08:06:36.856Z,9.15
2023-03-03T08:09:26.267Z,9.10
2023-03-03T08:11:58.246Z,9.20
2023-03-03T08:14:30.806Z,8.63
2023-03-03T08:17:01.314Z,9.00
2023-03-03T08:19:32.043Z,8.82
2023-03-03T08:22:03.694Z,9.68
2023-03-03T08:24:31.476Z,8.13
2023-03-03T08:26:59.270Z,9.15
2023-03-03T08:29:28.417Z,8.43
2023-03-03T08:31:56.341Z,8.88
2023-03-03T08:34:24.729Z,8.85
2023-03-03T08:36:52.531Z,8.67
2023-03-03T08:39:20.447Z,9.07
2023-03-03T08:41:48.224Z,8.82
2023-03-03T08:44:16.040Z,8.48
2023-03-03T08:46:45.209Z,9.30
2023-03-03T08:49:13.216Z,8.80
2023-03-03T08:51:41.248Z,8.82
2023-03-03T08:54:09.651Z,8.98
2023-03-03T08:56:37.596Z,9.52
2023-03-03T08:59:05.433Z,9.65
2023-03-03T09:01:33.944Z,9.23
2023-03-03T09:04:03.485Z,9.00
2023-03-03T09:06:31.291Z,8.98
2023-03-03T09:08:59.215Z,7.97
2023-03-03T09:11:29.122Z,8.32
2023-03-03T09:14:03.194Z,8.27
2023-03-03T09:16:38.378Z,7.25
2023-03-03T09:19:23.458Z,7.70
2023-03-03T09:21:54.763Z,7.18
2023-03-03T09:24:27.411Z,6.47
2023-03-03T09:26:55.409Z,6.07
2023-03-03T09:29:27.591Z,6.78
2023-03-03T09:31:57.438Z,6.70
2023-03-03T09:34:29.640Z,6.80
2023-03-03T09:36:59.988Z,7.10
2023-03-03T09:39:30.904Z,7.33
2023-03-03T09:42:16.539Z,7.18
2023-03-03T09:45:10.847Z,8.68
2023-03-03T09:47:48.140Z,7.47
2023-03-03T09:50:31.959Z,9.32
2023-03-03T09:53:14.724Z,7.33
2023-03-03T09:55:51.557Z,8.65
2023-03-03T09:58:45.521Z,7.80
2023-03-03T10:01:32.473Z,10.02
2023-03-03T10:04:12.307Z,7.85
2023-03-03T10:06:46.747Z,8.37
2023-03-03T10:09:44.382Z,8.40
2023-03-03T10:12:22.531Z,7.70
2023-03-03T10:15:16.019Z,8.65
2023-03-03T10:17:52.300Z,9.50
2023-03-03T10:20:49.733Z,8.17
2023-03-03T10:23:41.014Z,7.20
2023-03-03T10:26:25.076Z,7.60
2023-03-03T10:29:09.340Z,7.32
2023-03-03T10:31:47.710Z,7.55
2023-03-03T10:34:30.832Z,8.43
2023-03-03T10:37:04.299Z,8.32
2023-03-03T10:39:48.058Z,8.75
2023-03-03T10:42:43.489Z,7.65
2023-03-03T10:45:39.648Z,8.32
2023-03-03T10:48:23.757Z,7.43
2023-03-03T10:50:58.436Z,6.88
2023-03-03T10:53:32.787Z,8.95
2023-03-03T10:56:18.730Z,8.93
2023-03-03T10:58:55.845Z,6.68
2023-03-03T11:01:31.736Z,7.33
2023-03-03T11:04:22.216Z,6.88
2023-03-03T11:06:59.875Z,6.90
2023-03-03T11:09:41.310Z,6.53
2023-03-03T11:12:25.048Z,6.93
2023-03-03T11:15:19.276Z,7.20
2023-03-03T11:18:04.270Z,7.82
2023-03-03T11:20:39.655Z,9.55
2023-03-03T11:23:23.008Z,11.05
2023-03-03T11:25:55.939Z,9.27
2023-03-03T11:28:35.453Z,10.40
2023-03-03T11:31:14.498Z,11.90
2023-03-03T11:33:51.953Z,12.43
2023-03-03T11:36:24.214Z,10.57
2023-03-03T11:38:58.052Z,12.98
2023-03-03T11:41:32.901Z,12.67
2023-03-03T11:44:11.222Z,12.88
2023-03-03T11:46:43.736Z,11.40
2023-03-03T11:49:18.388Z,12.40
2023-03-03T11:51:54.762Z,13.43
2023-03-03T11:54:28.849Z,11.63
2023-03-03T11:57:09.295Z,12.15
2023-03-03T11:59:49.365Z,12.68
2023-03-03T12:02:34.951Z,13.05
2023-03-03T12:05:09.847Z,12.43
2023-03-03T12:07:46.071Z,13.17
2023-03-03T12:10:22.752Z,13.10
2023-03-03T12:13:02.359Z,12.98
2023-03-03T12:15:39.350Z,12.48
2023-03-03T12:18:27.402Z,12.48
2023-03-03T12:21:05.366Z,13.10
2023-03-03T12:23:52.161Z,11.95
2023-03-03T12:26:26.909Z,12.45
2023-03-03T12:28:59.624Z,14.07
2023-03-03T12:31:41.111Z,12.88
2023-03-03T12:34:16.910Z,12.87
2023-03-03T12:36:58.956Z,11.98
2023-03-03T12:39:43.122Z,12.95
2023-03-03T12:42:19.416Z,12.55
2023-03-03T12:44:52.638Z,12.85
2023-03-03T12:47:29.075Z,12.10
2023-03-03T12:50:12.069Z,11.52
2023-03-03T12:52:50.266Z,12.02
2023-03-03T12:55:27.207Z,11.48
2023-03-03T12:58:04.623Z,12.20
2023-03-03T13:00:48.374Z,10.07
2023-03-03T13:03:53.379Z,10.45
2023-03-03T13:06:30.066Z,9.65
2023-03-03T13:09:25.430Z,10.88
2023-03-03T13:12:22.056Z,10.73
2023-03-03T13:14:55.363Z,9.97
2023-03-03T13:17:31.948Z,10.77
2023-03-03T13:20:03.779Z,9.98
2023-03-03T13:22:39.046Z,8.95
2023-03-03T13:25:24.059Z,10.60
2023-03-03T13:27:56.464Z,9.40
2023-03-03T13:30:28.531Z,9.68
2023-03-03T13:33:02.958Z,10.27
2023-03-03T13:35:43.430Z,9.50
2023-03-03T13:38:14.665Z,9.25
2023-03-03T13:40:44.982Z,8.70
2023-03-03T13:43:19.096Z,9.20
2023-03-03T13:45:58.755Z,9.50
2023-03-03T13:48:41.739Z,7.88
2023-03-03T13:51:22.714Z,7.43
2023-03-03T13:53:59.699Z,8.67
2023-03-03T13:56:42.897Z,7.07
2023-03-03T13:59:22.294Z,8.07
2023-03-03T14:01:59.562Z,7.75
2023-03-03T14:04:37.758Z,8.75
2023-03-03T14:07:14.500Z,8.17
2023-03-03T14:09:56.993Z,7.95
2023-03-03T14:12:37.966Z,8.10
2023-03-03T14:15:16.676Z,8.55
2023-03-03T14:18:03.140Z,7.60
2023-03-03T14:20:34.514Z,7.60
2023-03-03T14:23:09.756Z,7.03
2023-03-03T14:25:57.990Z,8.20
2023-03-03T14:28:27.796Z,7.07
2023-03-03T14:30:57.856Z,8.18
2023-03-03T14:33:32.403Z,7.07
2023-03-03T14:36:06.973Z,7.07
2023-03-03T14:38:42.841Z,7.25
2023-03-03T14:41:22.963Z,6.32
2023-03-03T14:44:00.226Z,6.38
2023-03-03T14:46:37.145Z,7.07
2023-03-03T14:49:08.048Z,7.47
2023-03-03T14:51:42.912Z,7.13
2023-03-03T14:54:22.267Z,6.80
2023-03-03T14:57:03.034Z,6.85
2023-03-03T14:59:32.278Z,6.60
2023-03-03T15:02:27.126Z,6.00
2023-03-03T15:05:15.063Z,7.45
2023-03-03T15:07:44.094Z,7.18
2023-03-03T15:10:14.631Z,8.25
2023-03-03T15:12:43.585Z,7.37
2023-03-03T15:15:19.629Z,7.45
2023-03-03T15:17:57.651Z,8.82
2023-03-03T15:20:36.754Z,7.47
2023-03-03T15:23:17.436Z,7.68
2023-03-03T15:25:55.465Z,7.43
2023-03-03T15:28:37.614Z,7.43
2023-03-03T15:31:17.692Z,7.57
2023-03-03T15:33:53.685Z,7.90
2023-03-03T15:36:33.051Z,7.30
2023-03-03T15:39:12.119Z,7.23
2023-03-03T15:41:46.194Z,6.72
2023-03-03T15:44:20.118Z,7.00
2023-03-03T15:47:17.256Z,6.50
2023-03-03T15:50:08.962Z,7.70
2023-03-03T15:52:49.741Z,7.80
2023-03-03T15:55:27.389Z,7.00
2023-03-03T15:58:07.345Z,6.72
2023-03-03T16:00:46.710Z,7.22
2023-03-03T16:03:20.740Z,7.15
2023-03-03T16:05:55.076Z,7.03
2023-03-03T16:08:30.840Z,7.93
2023-03-03T16:11:07.978Z,8.38
2023-03-03T16:13:52.261Z,7.75
2023-03-03T16:16:36.666Z,8.40
2023-03-03T16:19:18.985Z,8.33
2023-03-03T16:22:04.511Z,7.18
2023-03-03T16:24:44.446Z,7.50
2023-03-03T16:27:19.550Z,6.68
2023-03-03T16:30:05.200Z,7.15
2023-03-03T16:32:38.986Z,7.43
2023-03-03T16:35:22.159Z,6.85
2023-03-03T16:37:58.358Z,6.93
2023-03-03T16:40:30.707Z,7.45
2023-03-03T16:43:07.999Z,7.68
2023-03-03T16:45:39.478Z,7.77
2023-03-03T16:48:18.051Z,7.65
2023-03-03T16:50:55.818Z,6.70
2023-03-03T16:53:43.104Z,7.18
2023-03-03T16:56:15.607Z,7.38
2023-03-03T16:58:54.107Z,6.27
2023-03-03T17:01:32.947Z,6.45
2023-03-03T17:04:03.160Z,6.97
2023-03-03T17:06:41.050Z,6.95
2023-03-03T17:09:33.695Z,7.35
2023-03-03T17:12:11.760Z,7.13
2023-03-03T17:14:50.117Z,7.53
2023-03-03T17:17:33.532Z,6.97
2023-03-03T17:20:16.250Z,6.55
2023-03-03T17:22:53.021Z,7.43
2023-03-03T17:25:24.031Z,6.27
2023-03-03T17:28:04.512Z,6.13
2023-03-03T17:30:40.395Z,6.60
2023-03-03T17:33:31.234Z,6.65
2023-03-03T17:36:12.469Z,6.65
2023-03-03T17:38:49.708Z,6.73
2023-03-03T17:41:26.944Z,6.68
2023-03-03T17:44:01.690Z,6.57
2023-03-03T17:46:36.303Z,6.38
2023-03-03T17:49:36.351Z,6.72
2023-03-03T17:52:30.100Z,7.20
2023-03-03T17:55:18.847Z,5.97
2023-03-03T17:58:00.146Z,5.90
2023-03-03T18:00:37.409Z,6.38
2023-03-03T18:03:21.124Z,7.55
2023-03-03T18:06:11.816Z,7.70
2023-03-03T18:09:13.817Z,8.05
2023-03-03T18:12:04.520Z,7.38
2023-03-03T18:14:45.130Z,6.68
2023-03-03T18:17:34.627Z,7.68
2023-03-03T18:20:21.952Z,7.77
2023-03-03T18:22:52.934Z,8.07
2023-03-03T18:25:23.180Z,8.90
2023-03-03T18:28:16.660Z,7.68
2023-03-03T18:30:58.695Z,9.00
2023-03-03T18:33:44.473Z,7.27
2023-03-03T18:36:36.283Z,8.43
2023-03-03T18:39:07.259Z,9.32
2023-03-03T18:42:10.581Z,9.90
2023-03-03T18:44:38.643Z,10.13
2023-03-03T18:47:06.536Z,10.03
2023-03-03T18:50:00.656Z,10.23
2023-03-03T18:52:30.586Z,10.13
2023-03-03T18:55:25.069Z,10.80
2023-03-03T18:58:34.991Z,10.45
2023-03-03T19:01:34.851Z,10.37
2023-03-03T19:04:17.497Z,10.07
2023-03-03T19:07:17.014Z,10.40
2023-03-03T19:09:56.790Z,9.98
2023-03-03T19:12:58.098Z,10.68
2023-03-03T19:15:49.870Z,10.73
2023-03-03T19:18:23.731Z,9.63
2023-03-03T19:20:56.362Z,9.85
2023-03-03T19:23:35.463Z,12.90
2023-03-03T19:26:38.175Z,11.55
2023-03-03T19:29:21.054Z,10.73
2023-03-03T19:31:59.256Z,11.98
2023-03-03T19:34:38.508Z,11.30
2023-03-03T19:37:21.869Z,10.55
2023-03-03T19:40:00.865Z,10.88
2023-03-03T19:42:47.595Z,9.60
2023-03-03T19:45:46.601Z,10.95
2023-03-03T19:48:26.855Z,11.55
2023-03-03T19:51:01.723Z,9.60
2023-03-03T19:53:38.253Z,10.65
2023-03-03T19:56:25.717Z,10.23
2023-03-03T19:59:05.015Z,9.77
2023-03-03T20:01:45.850Z,12.05
2023-03-03T20:04:38.150Z,10.32
2023-03-03T20:07:17.086Z,10.52
2023-03-03T20:09:54.192Z,10.40
2023-03-03T20:12:37.337Z,10.15
2023-03-03T20:15:12.324Z,10.18
2023-03-03T20:18:01.947Z,10.25
2023-03-03T20:20:45.056Z,9.70
2023-03-03T20:23:20.897Z,9.67
2023-03-03T20:25:52.250Z,9.55
2023-03-03T20:28:55.957Z,9.55
2023-03-03T20:31:32.806Z,8.77
2023-03-03T20:34:12.094Z,9.32
2023-03-03T20:36:52.758Z,8.50
2023-03-03T20:39:35.288Z,8.95
2023-03-03T20:42:12.846Z,9.18
2023-03-03T20:44:58.021Z,8.30
2023-03-03T20:47:39.314Z,7.75
2023-03-03T20:50:24.134Z,7.63
2023-03-03T20:53:05.331Z,7.95
2023-03-03T20:55:42.935Z,8.45
2023-03-03T20:58:16.399Z,7.93
2023-03-03T21:00:51.079Z,8.23
2023-03-03T21:03:23.163Z,7.67
2023-03-03T21:06:03.164Z,6.75
2023-03-03T21:08:59.523Z,6.85
2023-03-03T21:11:41.971Z,7.15
2023-03-03T21:14:18.190Z,7.00
2023-03-03T21:16:46.204Z,7.60
2023-03-03T21:19:26.225Z,7.18
2023-03-03T21:21:55.754Z,6.78
2023-03-03T21:24:45.059Z,6.80
2023-03-03T21:27:26.344Z,8.15
2023-03-03T21:30:04.250Z,7.73
2023-03-03T21:32:37.852Z,6.50
2023-03-03T21:35:07.865Z,6.60
2023-03-03T21:37:47.856Z,7.88
2023-03-03T21:40:23.216Z,5.90
2023-03-03T21:42:52.015Z,7.27
2023-03-03T21:45:21.318Z,7.00
2023-03-03T21:47:49.839Z,7.65
2023-03-03T21:50:20.233Z,19.50
2023-03-03T21:52:48.152Z,9.15
2023-03-03T21:55:17.472Z,6.80
2023-03-03T21:57:45.284Z,6.50
2023-03-03T22:00:13.979Z,6.07
2023-03-03T22:02:41.805Z,6.63
2023-03-03T22:05:09.837Z,6.25
2023-03-03T22:07:37.657Z,6.53
2023-03-03T22:10:07.483Z,6.13
2023-03-03T22:12:36.686Z,5.45
2023-03-03T22:15:04.899Z,5.55
2023-03-03T22:17:32.683Z,6.95
2023-03-03T22:20:00.483Z,6.37
2023-03-03T22:22:28.364Z,5.15
2023-03-03T22:24:56.222Z,6.20
2023-03-03T22:27:24.087Z,5.88
2023-03-03T22:29:53.249Z,6.47
2023-03-03T22:32:21.195Z,5.83
2023-03-03T22:34:49.136Z,5.40
2023-03-03T22:37:16.997Z,5.25
2023-03-03T22:39:44.979Z,4.93
2023-03-03T22:42:12.766Z,4.28
2023-03-03T22:44:40.873Z,4.20
2023-03-03T22:47:09.983Z,4.95
2023-03-03T22:49:37.875Z,4.03
2023-03-03T22:52:05.996Z,3.00
2023-03-03T22:54:33.930Z,3.65
2023-03-03T22:57:01.783Z,2.90
2023-03-03T22:59:29.897Z,2.65
2023-03-03T23:01:57.848Z,2.88
2023-03-03T23:04:27.121Z,2.63
2023-03-03T23:06:55.085Z,2.33
2023-03-03T23:09:22.943Z,3.03
2023-03-03T23:11:50.993Z,2.05
2023-03-03T23:14:18.972Z,2.25
2023-03-03T23:16:47.352Z,2.45
2023-03-03T23:19:15.244Z,2.25
2023-03-03T23:21:44.393Z,1.93
2023-03-03T23:24:12.342Z,1.80
2023-03-03T23:26:40.335Z,2.22
2023-03-03T23:29:08.172Z,2.55
2023-03-03T23:31:35.981Z,1.90
2023-03-03T23:34:03.934Z,2.07
2023-03-03T23:36:31.758Z,1.98
2023-03-03T23:39:01.069Z,2.22
2023-03-03T23:41:29.864Z,1.77
2023-03-03T23:43:57.767Z,1.92
2023-03-03T23:46:25.673Z,1.73
2023-03-03T23:48:53.552Z,2.22
2023-03-03T23:51:21.366Z,2.00
2023-03-03T23:53:49.188Z,1.90
2023-03-03T23:56:18.331Z,1.88
2023-03-03T23:58:46.287Z,2.47
